This is the latest recevied weather packets stored in our database for station/object OM3WYM-13. If no packets are shown the sender has not sent any weather packets the latest 10 day(s).
| Time | Temp. | Humidity | Pressure | Rain* | Wind** | Luminosity | Snow |
|---|---|---|---|---|---|---|---|
| 1777633207 | 15° C | 33% | 1025.1 hPa | - | - | - | - |
| 1777632608 | 16.11° C | 32% | 1025 hPa | - | - | - | - |
| 1777632008 | 15° C | 32% | 1025.2 hPa | - | - | - | - |
| 1777631408 | 14.44° C | 32% | 1025.3 hPa | - | - | - | - |
| 1777630808 | 13.89° C | 31% | 1025.4 hPa | - | - | - | - |
| 1777630207 | 13.89° C | 30% | 1025.5 hPa | - | - | - | - |
| 1777629608 | 13.89° C | 30% | 1025.6 hPa | - | - | - | - |
| 1777629008 | 13.33° C | 29% | 1025.8 hPa | - | - | - | - |
| 1777628408 | 13.33° C | 30% | 1025.9 hPa | - | - | - | - |
| 1777627808 | 12.78° C | 31% | 1026.1 hPa | - | - | - | - |
| 1777627208 | 12.22° C | 32% | 1026.3 hPa | - | - | - | - |
| 1777626608 | 11.67° C | 32% | 1026.4 hPa | - | - | - | - |
| 1777626007 | 11.67° C | 34% | 1026.6 hPa | - | - | - | - |
| 1777625408 | 11.67° C | 34% | 1026.6 hPa | - | - | - | - |
| 1777624807 | 11.11° C | 34% | 1026.8 hPa | - | - | - | - |
| 1777624208 | 11.11° C | 36% | 1026.8 hPa | - | - | - | - |
| 1777623608 | 10.56° C | 37% | 1027 hPa | - | - | - | - |
| 1777623008 | 10° C | 38% | 1027.3 hPa | - | - | - | - |
| 1777622407 | 9.44° C | 38% | 1027.3 hPa | - | - | - | - |
| 1777621807 | 9.44° C | 40% | 1027.5 hPa | - | - | - | - |
| 1777621207 | 8.89° C | 40% | 1027.6 hPa | - | - | - | - |
| 1777620607 | 8.89° C | 39% | 1027.6 hPa | - | - | - | - |
| 1777620008 | 8.33° C | 40% | 1027.7 hPa | - | - | - | - |
| 1777619407 | 7.78° C | 43% | 1027.7 hPa | - | - | - | - |
| 1777618808 | 7.78° C | 43% | 1027.7 hPa | - | - | - | - |
* Rain since midnight (hover to see other rain measurements)
** Current wind speed in m/s (hover to see current wind gust speed)